Time;durP1;ratioP1;P1;durP2;ratioP2;P2;SDS_P1;SDS_P2;PMS_P1;PMS_P2;Temp;Humidity;BMP_temperature;BMP_pressure;BME280_temperature;BME280_humidity;BME280_pressure;Samples;Min_cycle;Max_cycle;Signal;HPM_P1;HPM_P2
2021/06/30 00:01:03;;;;;;;13.13;8.50;;;;;;;22.86;100.00;94634.81;10410847;28;20029;-83
2021/06/30 00:06:04;;;;;;;15.98;9.93;;;;;;;22.80;100.00;94629.94;10411513;28;20879;-83
2021/06/30 00:11:05;;;;;;;12.98;9.55;;;;;;;22.65;100.00;94637.03;10409552;28;20111;-84
2021/06/30 00:16:05;;;;;;;15.93;10.02;;;;;;;22.47;100.00;94642.84;10397922;28;20437;-78
2021/06/30 00:21:06;;;;;;;15.52;9.80;;;;;;;22.50;100.00;94636.66;10403207;28;20075;-80
2021/06/30 00:26:06;;;;;;;13.15;9.93;;;;;;;22.45;100.00;94636.09;10400592;28;20022;-78
2021/06/30 00:31:08;;;;;;;18.13;11.40;;;;;;;22.48;100.00;94643.63;10402538;28;20017;-78
2021/06/30 00:36:09;;;;;;;19.08;12.02;;;;;;;22.39;100.00;94646.53;10403334;28;20064;-78
2021/06/30 00:41:09;;;;;;;21.77;11.33;;;;;;;22.40;100.00;94647.34;10404322;28;20033;-78
2021/06/30 00:46:09;;;;;;;18.10;12.33;;;;;;;22.30;100.00;94654.09;10404191;28;20280;-77
2021/06/30 00:51:10;;;;;;;22.88;12.35;;;;;;;22.24;100.00;94648.06;10399085;28;20635;-77
2021/06/30 00:56:11;;;;;;;20.83;13.70;;;;;;;22.15;100.00;94667.38;10418343;28;20025;-77
2021/06/30 01:01:11;;;;;;;25.10;14.32;;;;;;;22.00;100.00;94662.66;10404440;28;20048;-78
2021/06/30 01:06:12;;;;;;;24.17;14.03;;;;;;;21.88;100.00;94659.94;10405739;28;20044;-77
2021/06/30 01:11:14;;;;;;;22.15;14.15;;;;;;;21.75;100.00;94661.94;10403703;28;20025;-78
2021/06/30 01:16:15;;;;;;;19.60;15.05;;;;;;;21.57;100.00;94662.19;10409543;28;20390;-77
2021/06/30 01:21:16;;;;;;;19.48;14.20;;;;;;;21.56;100.00;94657.88;10410310;28;20057;-77
2021/06/30 01:26:17;;;;;;;20.98;15.07;;;;;;;21.47;100.00;94652.50;10408845;28;20112;-77
2021/06/30 01:31:17;;;;;;;26.55;14.45;;;;;;;21.42;100.00;94643.75;10408314;28;20116;-78
2021/06/30 01:36:18;;;;;;;30.77;15.93;;;;;;;21.38;100.00;94642.84;10407947;28;20421;-78
2021/06/30 01:41:18;;;;;;;20.40;13.98;;;;;;;21.44;100.00;94641.47;10408798;28;20033;-78
2021/06/30 01:46:19;;;;;;;21.70;15.40;;;;;;;21.34;100.00;94650.94;10408833;28;20048;-78
2021/06/30 01:51:19;;;;;;;20.13;13.50;;;;;;;21.31;100.00;94654.38;10408098;28;20990;-78
2021/06/30 01:56:24;;;;;;;24.33;12.95;;;;;;;21.39;100.00;94660.84;10405700;28;20033;-78
2021/06/30 02:01:25;;;;;;;26.30;14.60;;;;;;;21.42;100.00;94663.69;10407346;28;20029;-78
2021/06/30 02:06:27;;;;;;;22.23;14.38;;;;;;;21.46;100.00;94652.84;10407200;28;20033;-78
2021/06/30 02:11:27;;;;;;;28.23;16.10;;;;;;;21.39;100.00;94660.84;10407855;28;20029;-78
2021/06/30 02:16:28;;;;;;;26.17;14.67;;;;;;;21.38;100.00;94659.25;10408262;28;20458;-78
2021/06/30 02:21:28;;;;;;;20.60;14.80;;;;;;;21.38;100.00;94662.78;10421782;28;20032;-78
2021/06/30 02:26:29;;;;;;;22.60;15.17;;;;;;;21.37;100.00;94663.13;10405118;28;20035;-78
2021/06/30 02:31:29;;;;;;;22.05;14.82;;;;;;;21.31;100.00;94666.09;10406411;28;20037;-78
2021/06/30 02:36:30;;;;;;;22.48;15.18;;;;;;;21.30;100.00;94669.97;10410414;28;20057;-77
2021/06/30 02:41:30;;;;;;;24.65;15.80;;;;;;;21.12;100.00;94680.31;10408164;28;20061;-78
2021/06/30 02:46:31;;;;;;;29.87;14.47;;;;;;;20.95;100.00;94686.03;10410011;28;20079;-77
2021/06/30 02:51:31;;;;;;;21.83;13.90;;;;;;;20.92;100.00;94682.03;10407418;28;20403;-78
2021/06/30 02:56:32;;;;;;;30.05;12.93;;;;;;;20.90;100.00;94683.53;10408361;28;20290;-77
2021/06/30 03:01:32;;;;;;;22.33;16.13;;;;;;;20.83;100.00;94689.53;10407428;28;20037;-78
2021/06/30 03:06:32;;;;;;;25.20;14.10;;;;;;;21.02;100.00;94694.47;10407404;28;20405;-77
2021/06/30 03:11:33;;;;;;;17.77;11.80;;;;;;;20.98;100.00;94688.06;10407672;28;20096;-77
2021/06/30 03:16:33;;;;;;;21.37;14.17;;;;;;;20.91;100.00;94704.25;10408770;28;20047;-77
2021/06/30 03:21:33;;;;;;;22.80;13.00;;;;;;;20.86;100.00;94704.47;10423733;28;20124;-77
2021/06/30 03:26:34;;;;;;;17.77;14.13;;;;;;;21.00;100.00;94704.91;10404809;28;20029;-77
2021/06/30 03:31:34;;;;;;;29.38;15.05;;;;;;;21.05;100.00;94699.22;10404438;28;20397;-77
2021/06/30 03:36:35;;;;;;;22.50;13.90;;;;;;;20.89;100.00;94703.78;10403985;28;20080;-77
2021/06/30 03:41:35;;;;;;;21.95;13.38;;;;;;;21.04;100.00;94700.38;10405068;28;20029;-77
2021/06/30 03:46:36;;;;;;;29.25;15.30;;;;;;;21.10;100.00;94692.78;10404466;28;20068;-77
2021/06/30 03:51:36;;;;;;;23.93;13.93;;;;;;;21.25;100.00;94680.31;10419384;28;20024;-78
2021/06/30 03:56:36;;;;;;;24.27;14.00;;;;;;;21.25;100.00;94702.19;10406687;28;20017;-76
2021/06/30 04:01:37;;;;;;;27.63;16.00;;;;;;;21.34;100.00;94709.13;10402749;28;20284;-77
2021/06/30 04:06:38;;;;;;;30.87;17.37;;;;;;;21.43;100.00;94705.50;10403291;28;20081;-77
2021/06/30 04:11:40;;;;;;;22.90;16.38;;;;;;;21.61;100.00;94712.31;10402030;28;20025;-77
2021/06/30 04:16:41;;;;;;;30.67;16.15;;;;;;;21.65;100.00;94705.03;10405698;28;20041;-77
2021/06/30 04:21:41;;;;;;;29.07;15.57;;;;;;;22.08;100.00;94702.75;10403063;28;20038;-76
2021/06/30 04:26:42;;;;;;;23.17;14.65;;;;;;;22.35;100.00;94692.19;10402251;28;20056;-77
2021/06/30 04:31:43;;;;;;;24.85;15.30;;;;;;;22.81;100.00;94702.78;10411214;28;20029;-75
2021/06/30 04:36:43;;;;;;;25.40;16.27;;;;;;;23.27;100.00;94716.06;10437556;28;20041;-76
2021/06/30 04:41:43;;;;;;;20.70;15.77;;;;;;;23.62;100.00;94726.28;10440930;28;20057;-76
2021/06/30 04:46:44;;;;;;;23.10;14.27;;;;;;;24.09;100.00;94711.66;10445036;28;20033;-76
2021/06/30 04:51:45;;;;;;;22.50;13.63;;;;;;;24.62;100.00;94711.16;10451078;28;20082;-76
2021/06/30 04:56:47;;;;;;;30.73;15.88;;;;;;;25.21;100.00;94711.00;10451869;28;20542;-76
2021/06/30 05:01:48;;;;;;;24.13;15.25;;;;;;;25.75;100.00;94709.09;10451360;28;20056;-76
2021/06/30 05:06:48;;;;;;;25.55;17.40;;;;;;;25.85;100.00;94707.66;10450234;28;20452;-77
2021/06/30 05:11:48;;;;;;;21.30;14.90;;;;;;;26.06;100.00;94707.97;10450946;28;20466;-76
2021/06/30 05:16:49;;;;;;;28.13;12.73;;;;;;;26.61;100.00;94709.41;10450843;28;20036;-77
2021/06/30 05:21:49;;;;;;;19.33;10.67;;;;;;;26.90;100.00;94706.97;10450417;28;20021;-76
2021/06/30 05:26:50;;;;;;;15.27;10.40;;;;;;;27.17;100.00;94710.38;10450367;28;20116;-76
2021/06/30 05:31:51;;;;;;;22.50;10.65;;;;;;;27.61;100.00;94712.31;10465311;28;20893;-76
2021/06/30 05:36:52;;;;;;;15.70;9.10;;;;;;;27.54;100.00;94720.56;10449459;28;20234;-76
2021/06/30 05:41:52;;;;;;;17.05;9.40;;;;;;;28.45;95.19;94711.63;10448505;28;20039;-76
2021/06/30 05:46:53;;;;;;;15.40;8.93;;;;;;;27.98;95.29;94716.13;10445842;28;20769;-77
2021/06/30 05:51:53;;;;;;;23.40;9.47;;;;;;;27.36;99.30;94720.41;10444507;28;20021;-76
2021/06/30 05:56:53;;;;;;;17.67;8.70;;;;;;;27.74;96.11;94715.59;10445839;28;20032;-77
2021/06/30 06:01:54;;;;;;;16.03;9.53;;;;;;;28.23;96.18;94716.28;10445549;28;20070;-76
2021/06/30 06:06:54;;;;;;;16.65;8.68;;;;;;;28.79;91.36;94716.09;10444146;28;20056;-76
2021/06/30 06:11:55;;;;;;;14.32;8.35;;;;;;;29.65;87.02;94701.53;10443112;28;20028;-77
2021/06/30 06:16:56;;;;;;;16.83;9.00;;;;;;;30.77;84.20;94704.78;10445041;28;20109;-76
2021/06/30 06:21:58;;;;;;;15.40;7.55;;;;;;;31.18;72.03;94706.16;10442902;28;20032;-77
2021/06/30 06:26:59;;;;;;;21.77;6.15;;;;;;;31.42;71.77;94706.38;10444660;28;20118;-77
2021/06/30 06:32:00;;;;;;;14.30;7.40;;;;;;;32.34;62.94;94705.91;10444800;28;20036;-77
2021/06/30 06:37:02;;;;;;;12.55;7.35;;;;;;;32.77;62.72;94707.38;10443369;28;20049;-77
2021/06/30 06:42:03;;;;;;;23.85;7.82;;;;;;;33.80;60.76;94695.88;10442619;28;20540;-77
2021/06/30 06:47:04;;;;;;;13.77;7.00;;;;;;;34.02;51.43;94695.47;10442577;28;20476;-77
2021/06/30 06:52:04;;;;;;;13.40;7.40;;;;;;;34.39;50.31;94688.81;10442022;28;20369;-77
2021/06/30 06:57:05;;;;;;;14.32;6.53;;;;;;;33.80;52.89;94686.72;10443232;28;20028;-77
2021/06/30 07:02:06;;;;;;;16.27;6.80;;;;;;;34.35;52.90;94682.50;10442763;28;20024;-77
2021/06/30 07:07:06;;;;;;;14.23;7.07;;;;;;;35.46;49.70;94670.13;10442990;28;20322;-77
2021/06/30 07:12:07;;;;;;;11.67;6.20;;;;;;;36.16;46.40;94667.13;10442686;28;20021;-77
2021/06/30 07:17:07;;;;;;;14.52;5.93;;;;;;;36.44;44.86;94666.34;10442674;28;20032;-77
2021/06/30 07:22:07;;;;;;;16.20;7.67;;;;;;;36.43;43.94;94664.00;10441634;28;20025;-77
2021/06/30 07:27:08;;;;;;;13.47;6.70;;;;;;;36.08;43.64;94656.13;10440717;28;20492;-77
2021/06/30 07:32:08;;;;;;;16.30;7.73;;;;;;;36.88;41.73;94657.50;10442246;28;20024;-77
2021/06/30 07:37:09;;;;;;;18.13;7.33;;;;;;;37.63;40.75;94651.47;10441959;28;20053;-77
2021/06/30 07:42:09;;;;;;;17.93;8.23;;;;;;;37.73;39.74;94640.34;10442166;28;20721;-77
2021/06/30 07:47:10;;;;;;;17.87;6.77;;;;;;;37.90;41.12;94641.78;10442238;28;20416;-77
2021/06/30 07:52:11;;;;;;;15.15;6.88;;;;;;;38.70;38.63;94636.91;10442320;28;20081;-77
2021/06/30 07:57:11;;;;;;;16.45;7.93;;;;;;;38.08;39.48;94624.31;10442317;28;20024;-77
2021/06/30 08:02:11;;;;;;;23.93;8.97;;;;;;;38.74;39.13;94625.53;10442110;28;20037;-77
2021/06/30 08:07:12;;;;;;;21.58;8.85;;;;;;;39.25;37.87;94632.78;10440706;28;20120;-77
2021/06/30 08:12:12;;;;;;;25.27;7.77;;;;;;;40.59;36.01;94622.25;10441775;28;20033;-77
2021/06/30 08:17:13;;;;;;;20.00;7.47;;;;;;;40.44;34.61;94619.28;10441434;28;20272;-77
2021/06/30 08:22:13;;;;;;;14.07;7.20;;;;;;;41.41;34.13;94616.78;10443411;28;20032;-77
2021/06/30 08:27:14;;;;;;;12.10;6.17;;;;;;;41.26;33.02;94614.63;10448520;28;20036;-77
2021/06/30 08:32:15;;;;;;;15.95;6.50;;;;;;;41.17;33.50;94609.06;10447966;28;20476;-77
2021/06/30 08:37:18;;;;;;;17.08;6.82;;;;;;;40.71;32.79;94609.22;10449011;28;20049;-77
2021/06/30 08:42:19;;;;;;;20.75;7.18;;;;;;;40.89;34.18;94606.34;10448976;28;20204;-77
2021/06/30 08:47:23;;;;;;;12.73;6.03;;;;;;;41.59;33.38;94608.19;10449211;28;20828;-77
2021/06/30 08:52:23;;;;;;;9.32;6.03;;;;;;;41.70;31.22;94606.84;10449018;28;20922;-77
2021/06/30 08:57:26;;;;;;;15.82;5.75;;;;;;;42.49;29.55;94611.22;10448450;28;20093;-77
2021/06/30 09:02:26;;;;;;;17.35;5.20;;;;;;;42.21;31.10;94608.69;10449193;28;20544;-77
2021/06/30 09:07:26;;;;;;;12.37;6.33;;;;;;;42.83;29.68;94601.31;10449841;28;20021;-77
2021/06/30 09:12:38;;;;;;;12.77;6.23;;;;;;;42.94;29.92;94592.22;10448998;28;20752;-77
2021/06/30 09:17:38;;;;;;;9.23;5.07;;;;;;;42.43;31.66;94597.00;10449134;28;20033;-77
2021/06/30 09:22:55;;;;;;;9.20;5.37;;;;;;;43.11;29.85;94588.88;10448633;28;20017;-77
2021/06/30 09:27:56;;;;;;;15.18;5.57;;;;;;;43.27;30.23;94588.34;10448802;28;20028;-77
2021/06/30 09:33:04;;;;;;;13.70;5.35;;;;;;;44.32;28.63;94579.34;10448178;28;20166;-77
2021/06/30 09:38:30;;;;;;;11.57;5.03;;;;;;;44.94;28.72;94573.47;10446930;28;20680;-77
2021/06/30 09:43:33;;;;;;;9.75;5.38;;;;;;;42.59;31.41;94564.66;10448206;28;20559;-77
2021/06/30 09:48:37;;;;;;;16.08;5.78;;;;;;;43.28;30.12;94552.38;10449542;28;20021;-77
2021/06/30 09:53:41;;;;;;;13.38;5.07;;;;;;;44.01;30.11;94541.16;10451176;28;20163;-77
2021/06/30 09:58:41;;;;;;;16.40;5.82;;;;;;;43.36;30.03;94536.53;10450924;28;20093;-77
2021/06/30 10:03:42;;;;;;;12.25;5.55;;;;;;;44.43;29.12;94524.84;10449262;28;20517;-77
2021/06/30 10:08:42;;;;;;;8.75;5.72;;;;;;;44.09;29.70;94530.19;10450466;28;20033;-77
2021/06/30 10:13:42;;;;;;;14.33;6.07;;;;;;;44.75;29.69;94510.69;10450106;28;20411;-77
2021/06/30 10:18:43;;;;;;;14.07;6.40;;;;;;;44.68;29.84;94511.91;10449725;28;20454;-77
2021/06/30 10:23:45;;;;;;;10.43;5.88;;;;;;;43.58;30.61;94499.25;10449586;28;20074;-77
2021/06/30 10:28:54;;;;;;;9.98;5.50;;;;;;;42.57;32.28;94507.84;10449678;28;20484;-77
2021/06/30 10:34:01;;;;;;;7.75;5.00;;;;;;;41.56;33.27;94484.22;10449620;28;20047;-77
2021/06/30 10:39:01;;;;;;;16.50;5.30;;;;;;;43.54;31.25;94487.34;10447865;28;20464;-77
2021/06/30 10:44:07;;;;;;;9.53;4.83;;;;;;;44.35;30.57;94490.50;10446133;28;20029;-77
2021/06/30 10:49:22;;;;;;;11.45;5.07;;;;;;;44.03;32.43;94479.94;10443771;28;20859;-77
2021/06/30 10:54:31;;;;;;;8.88;4.50;;;;;;;44.55;30.50;94475.47;10442693;28;20029;-77
2021/06/30 11:00:01;;;;;;;12.43;5.18;;;;;;;45.28;31.03;94477.97;10442548;28;20032;-77
2021/06/30 11:05:13;;;;;;;7.50;4.95;;;;;;;43.87;32.02;94464.31;10442895;28;20104;-77
2021/06/30 11:10:16;;;;;;;8.27;4.82;;;;;;;40.48;36.61;94462.19;10459492;28;20136;-76
2021/06/30 11:15:39;;;;;;;8.40;6.13;;;;;;;38.13;43.24;94457.38;10444283;28;20021;-77
2021/06/30 11:20:42;;;;;;;11.32;6.57;;;;;;;36.33;51.92;94455.22;10444101;28;20060;-76
2021/06/30 11:25:42;;;;;;;16.38;7.10;;;;;;;35.66;56.00;94437.19;10443911;28;20526;-76
2021/06/30 11:30:42;;;;;;;12.83;7.17;;;;;;;35.13;60.30;94431.88;10458906;28;20082;-76
2021/06/30 11:35:45;;;;;;;15.90;7.13;;;;;;;35.00;67.13;94429.81;10443253;28;20059;-76
2021/06/30 11:41:00;;;;;;;16.60;8.00;;;;;;;35.12;63.32;94411.53;10443228;28;20025;-76
2021/06/30 11:46:04;;;;;;;14.18;7.78;;;;;;;34.94;72.73;94409.22;10443534;28;20440;-77
2021/06/30 11:51:12;;;;;;;14.63;7.03;;;;;;;34.65;65.77;94403.56;10443308;28;20847;-76
2021/06/30 11:56:16;;;;;;;7.97;5.95;;;;;;;34.61;62.20;94397.28;10442845;28;20203;-76
2021/06/30 12:01:21;;;;;;;13.07;6.47;;;;;;;34.66;58.06;94394.75;10441946;28;20075;-76
2021/06/30 12:06:26;;;;;;;15.52;6.93;;;;;;;34.58;59.45;94390.59;10442264;28;20021;-76
2021/06/30 12:11:32;;;;;;;15.43;5.75;;;;;;;34.19;62.95;94381.16;10442806;28;20526;-76
2021/06/30 12:16:46;;;;;;;16.23;7.28;;;;;;;34.19;62.12;94372.78;10442328;28;20496;-76
2021/06/30 12:21:48;;;;;;;9.10;5.43;;;;;;;34.31;56.81;94360.19;10440419;28;20087;-76
2021/06/30 12:27:02;;;;;;;14.90;5.90;;;;;;;34.01;54.15;94362.09;10456400;28;20033;-76
2021/06/30 12:32:05;;;;;;;11.82;5.38;;;;;;;34.05;53.43;94360.00;10442458;28;20846;-76
2021/06/30 12:37:06;;;;;;;14.38;6.78;;;;;;;34.16;53.28;94349.38;10442133;28;20056;-76
2021/06/30 12:42:08;;;;;;;12.07;5.82;;;;;;;34.22;53.75;94352.41;10442430;28;20025;-76
2021/06/30 12:47:11;;;;;;;13.15;6.82;;;;;;;34.33;53.06;94354.94;10441975;28;20029;-76
2021/06/30 12:52:20;;;;;;;12.45;5.88;;;;;;;34.32;52.57;94348.59;10441790;28;20488;-76
2021/06/30 12:57:21;;;;;;;16.20;6.57;;;;;;;34.44;55.56;94337.94;10441328;28;20516;-76
2021/06/30 13:02:21;;;;;;;16.97;6.73;;;;;;;34.21;51.16;94339.69;10441576;28;20029;-76
2021/06/30 13:07:37;;;;;;;11.20;6.00;;;;;;;34.41;51.36;94334.00;10442752;28;20329;-76
2021/06/30 13:12:37;;;;;;;15.13;6.17;;;;;;;34.27;62.44;94320.41;10449234;28;20036;-76
2021/06/30 13:17:38;;;;;;;13.40;5.43;;;;;;;34.06;51.88;94311.38;10448634;28;20079;-76
2021/06/30 13:22:43;;;;;;;16.25;5.82;;;;;;;33.59;51.96;94304.09;10448665;28;20039;-76
2021/06/30 13:38:23;;;;;;;10.43;5.35;;;;;;;33.61;49.68;94300.88;10448538;28;20041;-76
2021/06/30 13:43:24;;;;;;;11.80;5.70;;;;;;;33.71;49.43;94305.41;10448263;28;20041;-76
2021/06/30 13:48:26;;;;;;;15.33;5.00;;;;;;;33.49;47.09;94311.50;10447648;28;20476;-76
2021/06/30 13:53:28;;;;;;;14.95;5.80;;;;;;;33.35;48.28;94309.00;10447840;28;20048;-76
2021/06/30 13:58:29;;;;;;;22.33;5.63;;;;;;;33.45;48.08;94307.19;10447648;28;20094;-76
2021/06/30 14:03:30;;;;;;;15.82;5.78;;;;;;;33.45;51.26;94310.78;10446872;28;20546;-77
2021/06/30 14:08:32;;;;;;;15.77;5.50;;;;;;;33.28;51.91;94304.41;10445580;28;20033;-77
2021/06/30 14:13:33;;;;;;;13.02;5.05;;;;;;;33.42;54.29;94300.50;10446750;28;20033;-76
2021/06/30 14:18:33;;;;;;;19.10;5.28;;;;;;;33.25;57.14;94310.03;10445664;28;20077;-77
2021/06/30 14:23:34;;;;;;;12.40;5.53;;;;;;;33.10;57.71;94313.13;10446590;28;20029;-76
2021/06/30 14:28:34;;;;;;;11.82;5.47;;;;;;;33.12;62.95;94310.66;10446135;28;20130;-76
2021/06/30 14:33:35;;;;;;;11.00;5.00;;;;;;;32.59;62.07;94301.38;10445847;28;20041;-76
2021/06/30 14:38:35;;;;;;;16.97;6.40;;;;;;;32.23;65.98;94304.81;10445502;28;20025;-76
2021/06/30 14:43:35;;;;;;;16.27;5.90;;;;;;;32.09;62.76;94303.81;10446031;28;20292;-76
2021/06/30 14:48:36;;;;;;;13.90;6.17;;;;;;;31.89;66.81;94317.66;10444757;28;20119;-76
2021/06/30 14:53:37;;;;;;;12.95;6.10;;;;;;;31.81;63.88;94316.97;10404102;28;20025;-76
2021/06/30 14:58:39;;;;;;;22.23;6.82;;;;;;;31.62;60.68;94312.13;10439327;28;20025;-77
2021/06/30 15:03:39;;;;;;;18.65;5.28;;;;;;;31.41;56.30;94308.44;10444505;28;20075;-77
2021/06/30 15:08:40;;;;;;;13.20;5.00;;;;;;;31.49;55.85;94287.66;10444563;28;20094;-77
2021/06/30 15:13:40;;;;;;;11.40;4.70;;;;;;;31.51;53.63;94288.06;10443905;28;20027;-77
2021/06/30 15:18:41;;;;;;;10.95;6.00;;;;;;;31.47;52.16;94284.53;10444294;28;20035;-77
2021/06/30 15:23:41;;;;;;;12.53;5.53;;;;;;;31.34;52.74;94276.00;10442922;28;20025;-76
2021/06/30 15:28:42;;;;;;;13.10;5.03;;;;;;;31.17;55.01;94268.72;10443016;28;20032;-77
2021/06/30 15:33:42;;;;;;;12.52;5.10;;;;;;;31.14;57.89;94250.91;10441601;28;20524;-76
2021/06/30 15:38:42;;;;;;;13.80;5.80;;;;;;;31.15;60.50;94255.25;10440996;28;20025;-76
2021/06/30 15:43:43;;;;;;;11.90;5.63;;;;;;;31.13;61.88;94257.69;10442157;28;20032;-76
2021/06/30 15:48:45;;;;;;;18.80;5.90;;;;;;;31.00;65.52;94249.06;10442616;28;20267;-77
2021/06/30 15:53:45;;;;;;;14.40;5.60;;;;;;;30.92;66.58;94246.81;10441283;28;20431;-76
2021/06/30 15:58:46;;;;;;;11.43;6.00;;;;;;;30.76;70.96;94262.09;10441621;28;20130;-76
2021/06/30 16:03:46;;;;;;;10.13;6.67;;;;;;;30.66;74.82;94251.91;10441448;28;20036;-76
2021/06/30 16:08:46;;;;;;;11.50;7.00;;;;;;;30.59;79.03;94246.44;10440396;28;20054;-77
2021/06/30 16:13:47;;;;;;;14.10;7.10;;;;;;;30.35;84.44;94254.59;10441984;28;20059;-77
2021/06/30 16:18:47;;;;;;;15.33;6.63;;;;;;;30.07;88.60;94241.84;10441921;28;20466;-77
2021/06/30 16:23:48;;;;;;;15.50;7.60;;;;;;;30.02;91.01;94254.16;10439604;28;20799;-77
2021/06/30 16:28:48;;;;;;;19.45;8.38;;;;;;;29.86;94.08;94253.91;10438701;28;20465;-77
2021/06/30 16:33:49;;;;;;;16.00;8.05;;;;;;;29.82;95.57;94273.31;10438072;28;20120;-77
2021/06/30 16:38:50;;;;;;;18.33;8.15;;;;;;;29.79;97.58;94274.13;10438732;28;20099;-77
2021/06/30 16:43:50;;;;;;;13.50;7.53;;;;;;;29.71;98.62;94284.50;10444287;28;20029;-77
2021/06/30 16:48:50;;;;;;;17.67;7.27;;;;;;;29.69;99.87;94272.25;10448517;28;20033;-77
2021/06/30 16:53:51;;;;;;;14.97;7.87;;;;;;;29.54;100.00;94280.69;10448293;28;20032;-77
2021/06/30 16:58:52;;;;;;;21.23;8.60;;;;;;;29.40;100.00;94283.53;10447660;28;20040;-77
2021/06/30 17:03:56;;;;;;;14.52;8.63;;;;;;;29.34;100.00;94291.47;10446312;28;20468;-77
2021/06/30 17:08:56;;;;;;;17.02;10.23;;;;;;;29.28;100.00;94296.66;10450789;28;20824;-77
2021/06/30 17:13:56;;;;;;;13.10;8.50;;;;;;;29.25;100.00;94304.97;10445778;28;20025;-77
2021/06/30 17:18:57;;;;;;;18.93;9.00;;;;;;;29.23;100.00;94301.78;10445202;28;20025;-77
2021/06/30 17:23:57;;;;;;;17.83;9.30;;;;;;;29.09;100.00;94295.13;10445677;28;20119;-77
2021/06/30 17:28:57;;;;;;;16.57;7.77;;;;;;;28.93;100.00;94286.56;10445421;28;20040;-76
2021/06/30 17:33:58;;;;;;;22.13;8.85;;;;;;;28.64;97.41;94306.03;10445626;28;20569;-77
2021/06/30 17:38:58;;;;;;;15.60;8.70;;;;;;;28.63;96.28;94298.91;10444866;28;20114;-77
2021/06/30 17:44:00;;;;;;;22.33;8.63;;;;;;;28.59;95.37;94289.81;10458951;28;20053;-77
2021/06/30 17:49:02;;;;;;;19.98;7.97;;;;;;;28.56;91.46;94290.63;10444657;28;20025;-78
2021/06/30 17:54:02;;;;;;;18.33;9.07;;;;;;;28.54;88.08;94298.53;10445357;28;20095;-78
2021/06/30 17:59:03;;;;;;;17.47;8.37;;;;;;;28.48;88.89;94298.94;10443054;28;20553;-78
2021/06/30 18:04:04;;;;;;;15.80;7.80;;;;;;;28.39;90.30;94295.78;10444543;28;20480;-75
2021/06/30 18:09:05;;;;;;;14.40;8.93;;;;;;;28.32;92.87;94278.47;10443183;28;20140;-75
2021/06/30 18:14:06;;;;;;;21.15;10.27;;;;;;;28.20;93.32;94285.19;10443558;28;20025;-75
2021/06/30 18:19:06;;;;;;;15.90;8.40;;;;;;;28.21;92.60;94306.09;10422701;28;20032;-75
2021/06/30 18:24:06;;;;;;;16.07;9.10;;;;;;;28.17;93.72;94319.13;10442688;28;20064;-78
2021/06/30 18:29:07;;;;;;;18.13;9.43;;;;;;;28.05;95.94;94307.31;10444998;28;20036;-78
2021/06/30 18:34:07;;;;;;;23.67;10.98;;;;;;;28.01;97.85;94309.28;10444406;28;20485;-78
2021/06/30 18:39:08;;;;;;;17.17;8.93;;;;;;;27.96;99.43;94310.47;10431521;28;20038;-77
2021/06/30 18:44:09;;;;;;;14.55;9.90;;;;;;;27.95;98.20;94328.22;10423880;28;20021;-76
2021/06/30 18:49:10;;;;;;;21.17;8.35;;;;;;;28.10;95.55;94315.22;10421843;28;20640;-76
2021/06/30 18:54:10;;;;;;;21.87;10.13;;;;;;;28.22;96.12;94318.75;10428363;28;20029;-74
2021/06/30 18:59:11;;;;;;;15.00;9.43;;;;;;;28.14;98.31;94320.72;10424565;28;20033;-80
2021/06/30 19:04:12;;;;;;;14.50;7.90;;;;;;;28.19;90.57;94336.91;10419679;28;20021;-77
2021/06/30 19:09:13;;;;;;;20.92;8.32;;;;;;;28.22;92.84;94344.41;10421244;28;20029;-78
2021/06/30 19:14:13;;;;;;;20.60;8.73;;;;;;;28.24;95.00;94358.59;10441494;28;20029;-78
2021/06/30 19:19:14;;;;;;;18.13;9.50;;;;;;;28.09;100.00;94355.06;10425307;28;20025;-78
2021/06/30 19:24:15;;;;;;;20.33;9.60;;;;;;;27.93;100.00;94357.41;10421223;28;20036;-78
2021/06/30 19:29:15;;;;;;;17.20;10.60;;;;;;;27.72;100.00;94350.69;10427675;28;20025;-78
2021/06/30 19:34:15;;;;;;;20.57;10.13;;;;;;;27.69;100.00;94359.75;10419089;28;20044;-77
2021/06/30 19:39:16;;;;;;;15.93;9.90;;;;;;;27.54;100.00;94350.66;10420358;28;20021;-77
2021/06/30 19:44:17;;;;;;;17.25;11.18;;;;;;;27.32;100.00;94346.25;10421474;28;20056;-77
2021/06/30 19:49:18;;;;;;;19.83;11.82;;;;;;;27.21;100.00;94351.72;10445279;28;20098;-78
2021/06/30 19:54:21;;;;;;;21.27;11.47;;;;;;;27.14;100.00;94357.25;10418173;28;20454;-78
2021/06/30 19:59:21;;;;;;;23.67;11.48;;;;;;;27.13;100.00;94367.50;10420255;28;20112;-77
2021/06/30 20:04:22;;;;;;;19.17;11.13;;;;;;;27.31;100.00;94375.03;10419035;28;20032;-77
2021/06/30 20:09:22;;;;;;;23.52;10.88;;;;;;;27.21;100.00;94380.13;10422600;28;20016;-78
2021/06/30 20:14:22;;;;;;;25.00;9.80;;;;;;;27.29;100.00;94372.66;10426691;28;20072;-77
2021/06/30 20:19:23;;;;;;;14.03;10.53;;;;;;;27.25;100.00;94358.06;10407570;28;20279;-77
2021/06/30 20:24:24;;;;;;;21.23;11.23;;;;;;;27.32;100.00;94358.06;10434493;28;20497;-78
2021/06/30 20:29:26;;;;;;;19.83;10.85;;;;;;;27.06;100.00;94350.91;10449451;28;20024;-77
2021/06/30 20:34:27;;;;;;;24.63;11.02;;;;;;;26.88;100.00;94359.91;10449092;28;20106;-78
2021/06/30 20:39:29;;;;;;;23.27;10.68;;;;;;;26.86;100.00;94358.72;10450361;28;20097;-78
2021/06/30 20:44:29;;;;;;;15.52;10.73;;;;;;;26.82;100.00;94363.41;10449750;28;20037;-79
2021/06/30 20:49:30;;;;;;;32.20;12.87;;;;;;;26.70;100.00;94359.03;10448314;28;20025;-79
2021/06/30 20:54:30;;;;;;;20.83;11.90;;;;;;;26.60;100.00;94364.06;10449373;28;20472;-78
2021/06/30 20:59:31;;;;;;;21.47;10.40;;;;;;;26.46;100.00;94354.94;10449608;28;20551;-78
2021/06/30 21:04:31;;;;;;;23.03;11.80;;;;;;;26.41;100.00;94337.56;10449057;28;20287;-78
2021/06/30 21:09:31;;;;;;;22.90;11.80;;;;;;;26.08;100.00;94364.13;10447977;28;20091;-78
2021/06/30 21:14:32;;;;;;;21.65;13.30;;;;;;;26.02;100.00;94362.13;10442890;28;20032;-78
2021/06/30 21:19:33;;;;;;;28.48;14.35;;;;;;;25.88;100.00;94362.75;10430661;28;20033;-78
2021/06/30 21:24:33;;;;;;;23.70;15.10;;;;;;;25.63;100.00;94374.34;10406746;28;20033;-78
2021/06/30 21:29:33;;;;;;;31.23;14.20;;;;;;;25.57;100.00;94362.88;10434811;28;20287;-78
2021/06/30 21:34:35;;;;;;;20.50;13.87;;;;;;;25.59;100.00;94351.50;10446543;28;20321;-78
2021/06/30 21:39:36;;;;;;;24.33;13.55;;;;;;;25.43;100.00;94338.00;10448175;28;20033;-78
2021/06/30 21:44:36;;;;;;;17.77;11.88;;;;;;;25.54;100.00;94335.34;10446767;28;20032;-79
2021/06/30 21:49:37;;;;;;;22.70;12.00;;;;;;;25.38;100.00;94347.38;10446982;28;20043;-78
2021/06/30 21:54:37;;;;;;;24.63;11.90;;;;;;;25.39;100.00;94323.41;10462479;28;20021;-79
2021/06/30 21:59:37;;;;;;;21.40;13.40;;;;;;;25.17;100.00;94338.88;10446371;28;20029;-82
2021/06/30 22:04:41;;;;;;;29.33;13.00;;;;;;;25.10;100.00;94338.81;10451261;28;20291;-81
2021/06/30 22:09:41;;;;;;;31.17;13.52;;;;;;;25.06;100.00;94325.00;10449412;28;20198;-82
2021/06/30 22:14:41;;;;;;;27.73;14.93;;;;;;;24.70;100.00;94336.38;10449521;28;20070;-81
2021/06/30 22:19:42;;;;;;;22.93;15.43;;;;;;;24.64;100.00;94340.63;10449339;28;20028;-81
2021/06/30 22:24:42;;;;;;;27.63;14.73;;;;;;;24.59;100.00;94332.69;10449074;28;20348;-80
2021/06/30 22:29:43;;;;;;;24.65;15.65;;;;;;;24.47;100.00;94327.41;10447374;28;20120;-80
2021/06/30 22:34:43;;;;;;;27.53;17.23;;;;;;;24.49;100.00;94314.91;10446828;28;20049;-80
2021/06/30 22:39:44;;;;;;;32.57;16.17;;;;;;;24.21;100.00;94318.03;10444712;28;20298;-80
2021/06/30 22:44:44;;;;;;;34.47;17.23;;;;;;;24.32;100.00;94301.72;10446145;28;20031;-80
2021/06/30 22:49:44;;;;;;;29.43;17.17;;;;;;;24.05;100.00;94294.28;10446514;28;20037;-80
2021/06/30 22:54:45;;;;;;;25.23;17.17;;;;;;;24.01;100.00;94301.69;10445686;28;20035;-80
2021/06/30 22:59:45;;;;;;;26.40;17.73;;;;;;;23.97;100.00;94306.31;10447835;28;20451;-81
2021/06/30 23:04:46;;;;;;;31.08;16.38;;;;;;;23.89;100.00;94312.91;10464317;28;20029;-81